Time;durP1;ratioP1;P1;durP2;ratioP2;P2;SDS_P1;SDS_P2;PMS_P1;PMS_P2;Temp;Humidity;BMP_temperature;BMP_pressure;BME280_temperature;BME280_humidity;BME280_pressure;Samples;Min_cycle;Max_cycle;Signal;HPM_P1;HPM_P2
2023/04/11 00:04:02;;;;;;;3.00;2.40;;;15.10;71.70;;;;;;10381646;28;20718;-81
2023/04/11 00:09:06;;;;;;;3.87;2.83;;;15.10;72.50;;;;;;10377816;28;20223;-79
2023/04/11 00:14:08;;;;;;;4.63;2.63;;;15.10;71.70;;;;;;10378509;28;20223;-81
2023/04/11 00:19:10;;;;;;;2.43;2.33;;;15.10;72.60;;;;;;10378281;28;20219;-81
2023/04/11 00:24:13;;;;;;;2.30;2.10;;;15.10;72.10;;;;;;10384577;28;20282;-81
2023/04/11 00:29:15;;;;;;;2.77;2.47;;;15.10;72.60;;;;;;10377394;28;20589;-80
2023/04/11 00:34:17;;;;;;;3.00;2.80;;;15.10;74.90;;;;;;10379938;28;20218;-80
2023/04/11 00:39:21;;;;;;;2.90;2.70;;;15.10;74.30;;;;;;10379507;28;20215;-80
2023/04/11 00:44:24;;;;;;;3.03;2.77;;;15.10;74.20;;;;;;10377787;28;20199;-79
2023/04/11 00:49:26;;;;;;;2.77;2.57;;;15.10;73.70;;;;;;10379753;28;20546;-80
2023/04/11 00:54:30;;;;;;;4.30;2.53;;;15.10;75.60;;;;;;10358861;28;20246;-80
2023/04/11 00:59:34;;;;;;;2.17;1.97;;;15.10;75.20;;;;;;10359117;28;20223;-79
2023/04/11 01:04:36;;;;;;;3.00;2.67;;;15.10;74.90;;;;;;10360669;28;20227;-78
2023/04/11 01:09:40;;;;;;;2.80;2.60;;;15.10;75.20;;;;;;10381281;28;20223;-79
2023/04/11 01:14:43;;;;;;;3.40;2.57;;;15.10;75.20;;;;;;10377636;28;20763;-80
2023/04/11 01:19:45;;;;;;;2.80;2.60;;;15.10;76.30;;;;;;10377135;28;20221;-80
2023/04/11 01:24:49;;;;;;;2.93;2.73;;;15.10;76.60;;;;;;10364634;28;20203;-80
2023/04/11 01:29:51;;;;;;;2.50;2.40;;;15.10;77.10;;;;;;10381596;28;20226;-80
2023/04/11 01:34:55;;;;;;;2.67;2.43;;;15.10;77.20;;;;;;10364025;28;20215;-80
2023/04/11 01:39:59;;;;;;;2.63;2.53;;;15.10;78.40;;;;;;10364711;28;20710;-80
2023/04/11 01:45:01;;;;;;;2.73;2.63;;;15.00;82.80;;;;;;10381519;28;20192;-81
2023/04/11 01:50:03;;;;;;;3.10;2.90;;;14.90;85.80;;;;;;10380784;28;20726;-80
2023/04/11 01:55:08;;;;;;;2.60;2.40;;;14.80;87.90;;;;;;10380746;28;20705;-79
2023/04/11 02:00:13;;;;;;;3.67;3.37;;;14.70;88.30;;;;;;10381013;28;20221;-80
2023/04/11 02:05:19;;;;;;;3.23;3.03;;;14.70;89.70;;;;;;10378542;28;20206;-80
2023/04/11 02:10:22;;;;;;;2.83;2.63;;;14.60;90.60;;;;;;10380160;28;20235;-80
2023/04/11 02:15:24;;;;;;;3.63;2.80;;;14.60;91.00;;;;;;10381083;28;20219;-80
2023/04/11 02:20:26;;;;;;;3.43;2.90;;;14.50;92.00;;;;;;10388286;28;20277;-81
2023/04/11 02:25:30;;;;;;;3.63;2.10;;;14.40;92.40;;;;;;10369197;28;20215;-79
2023/04/11 02:30:34;;;;;;;2.53;2.20;;;14.30;92.40;;;;;;10385588;28;20286;-78
2023/04/11 02:35:36;;;;;;;3.07;2.83;;;14.10;94.20;;;;;;10377780;28;20269;-78
2023/04/11 02:40:40;;;;;;;2.90;2.80;;;13.80;95.60;;;;;;10377490;28;20203;-78
2023/04/11 02:45:42;;;;;;;3.70;3.50;;;13.50;96.60;;;;;;10360489;28;20254;-80
2023/04/11 02:50:46;;;;;;;3.37;3.27;;;13.20;97.80;;;;;;10377833;28;20191;-80
2023/04/11 02:55:50;;;;;;;3.77;3.47;;;13.00;98.70;;;;;;10364721;28;20223;-79
2023/04/11 03:00:53;;;;;;;4.00;3.70;;;12.80;99.60;;;;;;10359660;28;20207;-79
2023/04/11 03:05:55;;;;;;;3.70;3.50;;;12.80;99.90;;;;;;10380518;28;20231;-79
2023/04/11 03:11:01;;;;;;;4.00;3.70;;;12.60;99.90;;;;;;10380218;28;20202;-79
2023/04/11 03:16:05;;;;;;;3.30;3.20;;;12.60;99.90;;;;;;10363571;28;20229;-79
2023/04/11 03:21:09;;;;;;;4.20;3.90;;;12.50;99.90;;;;;;10378836;28;20203;-79
2023/04/11 03:26:15;;;;;;;4.33;4.13;;;12.40;99.90;;;;;;10378367;28;20277;-79
2023/04/11 03:31:19;;;;;;;5.10;4.80;;;12.30;99.90;;;;;;10379312;28;20222;-79
2023/04/11 03:36:25;;;;;;;4.57;4.37;;;12.30;99.90;;;;;;10376037;28;20215;-79
2023/04/11 03:41:28;;;;;;;5.97;5.67;;;12.20;99.90;;;;;;10376337;28;20195;-79
2023/04/11 03:46:32;;;;;;;6.20;5.90;;;12.20;99.90;;;;;;10375847;28;20219;-79
2023/04/11 03:51:34;;;;;;;5.70;5.20;;;12.10;99.90;;;;;;10379798;28;20195;-79
2023/04/11 03:56:41;;;;;;;6.60;6.20;;;12.00;99.90;;;;;;10376453;28;20215;-79
2023/04/11 04:01:51;;;;;;;6.47;6.17;;;12.00;99.90;;;;;;10379628;28;20554;-79
2023/04/11 04:06:55;;;;;;;6.43;6.00;;;11.90;99.90;;;;;;10374899;28;20310;-79
2023/04/11 04:12:01;;;;;;;5.87;5.57;;;11.90;99.90;;;;;;10376480;28;20195;-79
2023/04/11 04:17:19;;;;;;;5.60;5.23;;;11.80;99.90;;;;;;10366500;28;20686;-79
2023/04/11 04:22:22;;;;;;;5.70;5.50;;;11.80;99.90;;;;;;10379932;28;20191;-79
2023/04/11 04:27:32;;;;;;;5.97;5.53;;;11.80;99.90;;;;;;10379401;28;20216;-79
2023/04/11 04:32:34;;;;;;;5.33;5.03;;;11.80;99.90;;;;;;10377356;28;20580;-79
2023/04/11 04:37:45;;;;;;;5.40;4.93;;;11.90;99.90;;;;;;10376755;28;20254;-79
2023/04/11 04:42:57;;;;;;;3.93;2.80;;;11.90;99.90;;;;;;10376887;28;20426;-79
2023/04/11 04:48:08;;;;;;;3.33;3.13;;;11.80;99.90;;;;;;10365356;28;20230;-79
2023/04/11 04:53:11;;;;;;;3.80;3.60;;;11.80;99.90;;;;;;10361101;28;20214;-79
2023/04/11 04:58:22;;;;;;;2.10;1.97;;;11.80;99.90;;;;;;10377603;28;20219;-79
2023/04/11 05:03:24;;;;;;;4.10;3.80;;;11.80;99.90;;;;;;10379090;28;20199;-80
2023/04/11 05:08:27;;;;;;;3.57;3.47;;;11.90;99.90;;;;;;10364549;28;20223;-81
2023/04/11 05:13:37;;;;;;;3.93;3.63;;;11.90;99.90;;;;;;10369021;28;20747;-82
2023/04/11 05:18:41;;;;;;;4.37;4.07;;;11.80;99.90;;;;;;10359357;28;20222;-82
2023/04/11 05:23:43;;;;;;;4.87;4.47;;;11.60;99.90;;;;;;10368139;28;20269;-83
2023/04/11 05:28:47;;;;;;;4.80;4.50;;;11.40;99.90;;;;;;10369427;28;20302;-82
2023/04/11 05:33:53;;;;;;;4.80;4.60;;;11.20;99.90;;;;;;10384809;28;20198;-82
2023/04/11 05:38:56;;;;;;;4.23;4.00;;;11.00;99.90;;;;;;10368880;28;20318;-81
2023/04/11 05:43:59;;;;;;;4.93;4.73;;;10.90;99.90;;;;;;10387745;28;20204;-81
2023/04/11 05:49:01;;;;;;;6.10;5.70;;;10.80;99.90;;;;;;10386414;28;20222;-81
2023/04/11 05:54:03;;;;;;;6.07;5.77;;;10.80;99.90;;;;;;10384135;28;20583;-81
2023/04/11 05:59:07;;;;;;;5.73;5.40;;;10.70;99.90;;;;;;10378688;28;20258;-81
2023/04/11 06:04:09;;;;;;;4.87;4.30;;;10.70;99.90;;;;;;10392604;28;20214;-82
2023/04/11 06:09:11;;;;;;;19.40;14.67;;;10.70;99.90;;;;;;10394322;28;20270;-81
2023/04/11 06:14:14;;;;;;;5.40;4.87;;;10.70;99.90;;;;;;10379238;28;20199;-81
2023/04/11 06:19:16;;;;;;;5.43;4.97;;;10.70;99.90;;;;;;10393924;28;20586;-81
2023/04/11 06:24:35;;;;;;;4.37;4.10;;;10.80;99.90;;;;;;10394438;28;20226;-81
2023/04/11 06:29:38;;;;;;;4.90;3.57;;;10.90;99.90;;;;;;10393728;28;20215;-82
2023/04/11 06:34:41;;;;;;;7.10;6.60;;;10.90;99.90;;;;;;10397001;28;20199;-82
2023/04/11 06:39:43;;;;;;;4.17;3.87;;;11.00;99.90;;;;;;10379415;28;20235;-81
2023/04/11 06:44:46;;;;;;;4.10;3.40;;;11.10;99.90;;;;;;10388102;28;20261;-81
2023/04/11 06:49:48;;;;;;;3.43;3.13;;;11.10;99.90;;;;;;10386891;28;20211;-81
2023/04/11 06:54:50;;;;;;;2.97;2.77;;;11.20;99.90;;;;;;10366198;28;20290;-81
2023/04/11 06:59:54;;;;;;;3.10;2.90;;;11.30;99.90;;;;;;10382033;28;20227;-81
2023/04/11 07:04:56;;;;;;;2.63;2.43;;;11.50;99.90;;;;;;10379245;28;20215;-81
2023/04/11 07:09:58;;;;;;;3.87;3.30;;;11.60;99.90;;;;;;10364571;28;20227;-81
2023/04/11 07:15:02;;;;;;;6.30;3.13;;;11.70;99.90;;;;;;10369360;28;20731;-81
2023/04/11 07:20:07;;;;;;;3.47;2.63;;;11.80;99.90;;;;;;10385229;28;20223;-81
2023/04/11 07:25:10;;;;;;;4.13;3.60;;;11.90;99.90;;;;;;10386122;28;20195;-81
2023/04/11 07:30:14;;;;;;;3.03;2.83;;;11.90;99.90;;;;;;10383103;28;20226;-81
2023/04/11 07:35:17;;;;;;;3.60;3.40;;;12.00;99.90;;;;;;10380660;28;20207;-81
2023/04/11 07:40:19;;;;;;;6.93;3.30;;;12.10;99.90;;;;;;10363332;28;20265;-81
2023/04/11 07:45:22;;;;;;;4.90;3.40;;;12.30;99.90;;;;;;10380524;28;20202;-81
2023/04/11 07:50:25;;;;;;;4.30;2.73;;;12.60;99.90;;;;;;10378521;28;20223;-81
2023/04/11 07:55:27;;;;;;;2.93;2.73;;;12.80;99.90;;;;;;10378764;28;20270;-81
2023/04/11 08:00:31;;;;;;;5.17;2.80;;;13.00;99.90;;;;;;10380542;28;20311;-81
2023/04/11 08:05:34;;;;;;;7.30;2.73;;;13.10;99.90;;;;;;10377828;28;20191;-81
2023/04/11 08:10:36;;;;;;;7.50;2.70;;;13.30;99.40;;;;;;10363189;28;20222;-81
2023/04/11 08:15:40;;;;;;;3.40;2.17;;;13.50;98.70;;;;;;10361719;28;20239;-81
2023/04/11 08:20:42;;;;;;;3.10;2.40;;;13.60;97.50;;;;;;10364208;28;20199;-81
2023/04/11 08:25:44;;;;;;;3.70;2.07;;;13.80;96.20;;;;;;10378517;28;20191;-81
2023/04/11 08:30:51;;;;;;;4.23;2.10;;;13.80;95.80;;;;;;10377597;28;20203;-81
2023/04/11 08:35:54;;;;;;;5.47;2.10;;;13.90;96.20;;;;;;10360673;28;20270;-81
2023/04/11 08:40:56;;;;;;;5.00;2.60;;;14.00;96.50;;;;;;10378931;28;20703;-81
2023/04/11 08:46:02;;;;;;;4.60;2.33;;;14.10;95.80;;;;;;10379278;28;20199;-82
2023/04/11 08:51:05;;;;;;;6.40;2.40;;;14.20;93.40;;;;;;10380299;28;20218;-81
2023/04/11 08:56:15;;;;;;;3.30;2.20;;;14.10;94.40;;;;;;10378266;28;20575;-81
2023/04/11 09:01:30;;;;;;;4.60;3.33;;;14.20;93.70;;;;;;10379714;28;20207;-81
2023/04/11 09:06:34;;;;;;;4.00;1.90;;;14.30;93.60;;;;;;10369034;28;20225;-81
2023/04/11 09:11:52;;;;;;;4.57;2.27;;;14.30;93.50;;;;;;10382108;28;20281;-82
2023/04/11 09:16:57;;;;;;;4.37;2.40;;;14.60;92.40;;;;;;10380023;28;20219;-82
2023/04/11 09:22:01;;;;;;;6.00;2.07;;;14.80;90.30;;;;;;10382826;28;20234;-82
2023/04/11 09:27:07;;;;;;;5.03;2.23;;;14.90;91.20;;;;;;10364017;28;20207;-82
2023/04/11 09:32:27;;;;;;;2.70;2.00;;;15.00;90.50;;;;;;10381767;28;20201;-82
2023/04/11 09:37:42;;;;;;;7.17;5.43;;;15.00;90.40;;;;;;10378064;28;20233;-82
2023/04/11 09:42:45;;;;;;;4.33;2.20;;;14.90;90.50;;;;;;10375556;28;20736;-82
2023/04/11 09:47:49;;;;;;;9.33;2.50;;;14.90;90.70;;;;;;10375825;28;20298;-82
2023/04/11 09:52:52;;;;;;;4.03;1.80;;;14.80;89.40;;;;;;10377290;28;20195;-81
2023/04/11 09:57:55;;;;;;;3.57;2.27;;;14.70;89.10;;;;;;10359561;28;20287;-82
2023/04/11 10:02:58;;;;;;;5.33;2.03;;;14.60;87.50;;;;;;10377720;28;20200;-81
2023/04/11 10:08:05;;;;;;;5.07;2.40;;;14.60;88.00;;;;;;10377312;28;20222;-82
2023/04/11 10:13:37;;;;;;;3.40;2.10;;;14.70;88.80;;;;;;10378287;28;20204;-82
2023/04/11 10:19:24;;;;;;;2.70;2.33;;;14.80;88.70;;;;;;10378655;28;20297;-82
2023/04/11 10:24:26;;;;;;;2.43;2.20;;;15.00;89.70;;;;;;10364042;28;20278;-83
2023/04/11 10:29:47;;;;;;;4.83;2.90;;;15.20;87.40;;;;;;10380151;28;20585;-82
2023/04/11 10:35:22;;;;;;;3.67;2.33;;;15.40;85.50;;;;;;10380532;28;20329;-83
2023/04/11 10:40:25;;;;;;;5.20;2.70;;;15.20;88.70;;;;;;10349311;28;20219;-82
2023/04/11 10:45:28;;;;;;;3.43;2.23;;;15.00;91.50;;;;;;10372996;28;20226;-82
2023/04/11 10:50:40;;;;;;;5.43;2.67;;;14.90;91.90;;;;;;10388927;28;20222;-83
2023/04/11 10:55:48;;;;;;;2.90;2.03;;;14.80;92.40;;;;;;10389709;28;20187;-82
2023/04/11 11:01:13;;;;;;;4.73;2.67;;;14.70;92.20;;;;;;10390021;28;20242;-82
2023/04/11 11:06:17;;;;;;;6.03;3.53;;;14.80;92.50;;;;;;10388721;28;20698;-82
2023/04/11 11:11:19;;;;;;;5.33;2.30;;;14.90;90.20;;;;;;10373765;28;20206;-82
2023/04/11 11:16:24;;;;;;;3.63;2.13;;;15.00;87.20;;;;;;10380194;28;20226;-82
2023/04/11 11:21:28;;;;;;;2.60;2.00;;;14.90;87.60;;;;;;10366316;28;20524;-82
2023/04/11 11:26:38;;;;;;;5.00;2.23;;;14.90;85.20;;;;;;10379667;28;20212;-81
2023/04/11 11:31:41;;;;;;;4.53;2.50;;;14.80;84.60;;;;;;10362967;28;20204;-82
2023/04/11 11:36:46;;;;;;;4.63;2.30;;;14.80;84.50;;;;;;10379641;28;20291;-81
2023/04/11 11:41:48;;;;;;;5.03;2.33;;;14.80;82.70;;;;;;10379595;28;20286;-82
2023/04/11 11:47:04;;;;;;;2.50;1.77;;;14.70;81.70;;;;;;10382208;28;20963;-82
2023/04/11 11:52:08;;;;;;;2.97;1.67;;;14.60;80.50;;;;;;10384251;28;20286;-83
2023/04/11 11:57:10;;;;;;;4.00;2.00;;;14.50;80.60;;;;;;10384254;28;20229;-81
2023/04/11 12:02:12;;;;;;;3.50;2.27;;;14.50;81.20;;;;;;10360489;28;20187;-82
2023/04/11 12:07:21;;;;;;;6.40;2.90;;;14.50;77.80;;;;;;10375599;28;20223;-81
2023/04/11 12:12:23;;;;;;;3.20;2.07;;;14.60;75.80;;;;;;10359809;28;20616;-82
2023/04/11 12:17:25;;;;;;;2.30;1.90;;;14.80;79.40;;;;;;10374287;28;20222;-82
2023/04/11 12:22:28;;;;;;;4.57;1.90;;;14.90;79.30;;;;;;10376309;28;20230;-82
2023/04/11 12:27:32;;;;;;;5.73;2.57;;;15.10;74.20;;;;;;10375724;28;20219;-82
2023/04/11 12:32:34;;;;;;;4.47;2.03;;;15.10;73.80;;;;;;10359119;28;20199;-81
2023/04/11 12:37:38;;;;;;;6.10;2.10;;;15.20;71.40;;;;;;10375724;28;20227;-82
2023/04/11 12:42:40;;;;;;;4.70;2.20;;;15.20;73.90;;;;;;10360995;28;20255;-82
2023/04/11 12:47:43;;;;;;;7.60;6.17;;;15.20;73.80;;;;;;10377871;28;20212;-82
2023/04/11 12:52:47;;;;;;;6.50;3.00;;;15.20;73.30;;;;;;10377452;28;20203;-82
2023/04/11 12:57:49;;;;;;;5.87;2.30;;;15.20;74.40;;;;;;10361253;28;20223;-82
2023/04/11 13:02:52;;;;;;;3.37;3.00;;;15.30;76.00;;;;;;10362353;28;20195;-82
2023/04/11 13:07:55;;;;;;;6.23;2.17;;;15.20;76.20;;;;;;10378088;28;20226;-82
2023/04/11 13:12:58;;;;;;;3.20;2.03;;;15.20;75.00;;;;;;10377083;28;20195;-82
2023/04/11 13:18:00;;;;;;;2.80;2.20;;;15.30;74.40;;;;;;10357627;28;20223;-82
2023/04/11 13:23:03;;;;;;;3.73;2.40;;;15.30;73.70;;;;;;10373375;28;20230;-82
2023/04/11 13:28:05;;;;;;;2.07;1.83;;;15.40;70.00;;;;;;10361556;28;20226;-82
2023/04/11 13:33:07;;;;;;;2.40;2.00;;;15.30;69.10;;;;;;10364123;28;20254;-82
2023/04/11 13:38:11;;;;;;;3.30;2.00;;;15.20;70.40;;;;;;10383509;28;20472;-82
2023/04/11 13:43:13;;;;;;;2.50;2.30;;;15.10;70.20;;;;;;10384050;28;20643;-82
2023/04/11 13:48:15;;;;;;;4.27;2.30;;;15.00;69.70;;;;;;10363351;28;20242;-81
2023/04/11 13:53:19;;;;;;;4.60;2.50;;;14.90;69.00;;;;;;10384544;28;20211;-81
2023/04/11 13:58:21;;;;;;;2.37;1.90;;;14.80;68.80;;;;;;10365569;28;20246;-81
2023/04/11 14:03:24;;;;;;;3.87;2.50;;;14.80;67.20;;;;;;10382172;28;20202;-81
2023/04/11 14:08:29;;;;;;;2.63;2.00;;;14.80;69.40;;;;;;10326396;28;20641;-81
2023/04/11 14:13:31;;;;;;;4.07;2.50;;;14.90;68.20;;;;;;10349036;28;20202;-81
2023/04/11 14:18:33;;;;;;;3.50;2.70;;;15.00;71.80;;;;;;10391485;28;20211;-81
2023/04/11 14:23:37;;;;;;;4.10;2.73;;;15.00;65.90;;;;;;10390681;28;20191;-81
2023/04/11 14:28:39;;;;;;;2.83;1.80;;;15.00;67.60;;;;;;10374188;28;20281;-81
2023/04/11 14:33:41;;;;;;;2.80;2.20;;;14.90;68.50;;;;;;10374047;28;20632;-81
2023/04/11 14:38:45;;;;;;;5.30;2.30;;;14.90;68.60;;;;;;10390795;28;20222;-82
2023/04/11 14:43:47;;;;;;;2.60;1.50;;;14.90;69.40;;;;;;10375740;28;20203;-81
2023/04/11 14:48:49;;;;;;;3.43;2.13;;;15.00;64.60;;;;;;10375351;28;20211;-81
2023/04/11 14:53:53;;;;;;;3.27;2.07;;;15.00;67.20;;;;;;10376043;28;20214;-81
2023/04/11 14:58:55;;;;;;;2.57;2.03;;;14.80;64.20;;;;;;10393188;28;20329;-81
2023/04/11 15:03:58;;;;;;;3.27;2.50;;;14.80;67.10;;;;;;10373912;28;20654;-82
2023/04/11 15:09:02;;;;;;;2.33;1.90;;;14.80;62.20;;;;;;10480427;23;20229;-86
2023/04/11 15:14:05;;;;;;;3.10;2.10;;;14.70;69.10;;;;;;10514125;28;20184;-86
2023/04/11 15:19:08;;;;;;;2.93;1.90;;;14.70;69.90;;;;;;10483572;28;20220;-86
2023/04/11 15:24:11;;;;;;;3.10;2.50;;;14.70;68.90;;;;;;10504022;28;20490;-86
2023/04/11 15:29:15;;;;;;;2.63;1.90;;;14.60;71.20;;;;;;10500084;28;20205;-86
2023/04/11 15:34:17;;;;;;;9.27;4.40;;;14.60;68.10;;;;;;10500921;28;20197;-86
2023/04/11 15:39:20;;;;;;;3.33;2.50;;;14.60;68.00;;;;;;10523949;28;20243;-86
2023/04/11 15:44:23;;;;;;;5.30;3.63;;;14.60;67.40;;;;;;10483727;28;20189;-86
2023/04/11 15:49:25;;;;;;;5.63;2.50;;;14.70;65.90;;;;;;10502423;28;20205;-85
2023/04/11 15:54:28;;;;;;;1.90;1.53;;;14.60;68.10;;;;;;10504582;28;20193;-86
2023/04/11 15:59:30;;;;;;;3.37;2.23;;;14.60;67.20;;;;;;10508448;28;20224;-85
2023/04/11 16:04:34;;;;;;;2.83;2.10;;;14.50;69.90;;;;;;10508137;28;20243;-86
2023/04/11 16:09:38;;;;;;;2.30;1.87;;;14.50;69.70;;;;;;10507018;28;20256;-84
2023/04/11 16:14:40;;;;;;;4.00;2.40;;;14.40;68.50;;;;;;10507852;28;21129;-83
2023/04/11 16:19:42;;;;;;;6.80;2.10;;;14.30;70.50;;;;;;10503413;28;20221;-80
2023/04/11 16:24:45;;;;;;;4.23;2.83;;;14.30;72.20;;;;;;10505059;28;20196;-80
2023/04/11 16:29:47;;;;;;;2.60;2.40;;;14.20;70.10;;;;;;10499082;28;20209;-79
2023/04/11 16:34:49;;;;;;;3.20;2.30;;;14.20;71.40;;;;;;10499029;28;20274;-79
2023/04/11 16:39:53;;;;;;;4.83;2.40;;;14.10;71.30;;;;;;10498747;28;20590;-79
2023/04/11 16:44:55;;;;;;;2.90;2.53;;;14.00;73.00;;;;;;10505801;28;20292;-79
2023/04/11 16:49:58;;;;;;;2.73;1.80;;;14.00;69.60;;;;;;10501377;28;20555;-80
2023/04/11 16:55:02;;;;;;;4.53;2.40;;;14.00;73.30;;;;;;10499492;28;20243;-81
2023/04/11 17:00:09;;;;;;;4.63;2.50;;;14.00;69.30;;;;;;10484052;28;20245;-81
2023/04/11 17:05:11;;;;;;;5.90;1.90;;;13.90;69.10;;;;;;10502051;28;20664;-80
2023/04/11 17:10:16;;;;;;;3.50;2.10;;;13.90;69.20;;;;;;10502429;28;20225;-80
2023/04/11 17:15:18;;;;;;;4.57;2.10;;;13.90;75.30;;;;;;10496759;28;20198;-80
2023/04/11 17:20:21;;;;;;;2.17;1.97;;;13.90;71.50;;;;;;10501608;28;20284;-80
2023/04/11 17:25:24;;;;;;;3.60;2.67;;;13.80;73.90;;;;;;10502797;28;20338;-80
2023/04/11 17:30:27;;;;;;;3.93;2.63;;;13.80;77.60;;;;;;10499957;28;20209;-80
2023/04/11 17:35:29;;;;;;;3.03;2.30;;;13.80;81.60;;;;;;10499277;28;20207;-79
2023/04/11 17:40:33;;;;;;;4.93;2.67;;;13.70;81.30;;;;;;10496849;28;20338;-78
2023/04/11 17:45:36;;;;;;;5.23;2.60;;;13.70;79.50;;;;;;10494564;28;20201;-78
2023/04/11 17:50:38;;;;;;;5.67;2.67;;;13.60;79.70;;;;;;10498289;28;20509;-79
2023/04/11 17:55:41;;;;;;;6.60;2.50;;;13.60;77.50;;;;;;10508592;28;20204;-78
2023/04/11 18:00:46;;;;;;;4.87;2.40;;;13.50;75.20;;;;;;10498649;28;20225;-79
2023/04/11 18:05:50;;;;;;;4.50;2.37;;;13.50;76.70;;;;;;10499671;28;20490;-80
2023/04/11 18:10:54;;;;;;;4.23;2.60;;;13.40;79.20;;;;;;10484381;28;20674;-79
2023/04/11 18:15:56;;;;;;;4.07;3.60;;;13.40;77.30;;;;;;10502340;28;20250;-80
2023/04/11 18:21:02;;;;;;;3.97;3.50;;;13.30;75.10;;;;;;10510905;28;20275;-79
2023/04/11 18:26:06;;;;;;;3.90;3.57;;;13.30;74.80;;;;;;10505425;28;20208;-79
2023/04/11 18:31:08;;;;;;;8.77;5.43;;;13.20;75.80;;;;;;10506525;28;20189;-80
2023/04/11 18:36:10;;;;;;;7.43;5.17;;;13.00;76.30;;;;;;10508518;28;20239;-79
2023/04/11 18:41:14;;;;;;;9.20;4.60;;;12.80;76.80;;;;;;10511415;28;20862;-79
2023/04/11 18:46:16;;;;;;;5.20;4.40;;;12.60;76.60;;;;;;10504680;28;20239;-79
2023/04/11 18:51:18;;;;;;;7.90;5.97;;;12.50;77.30;;;;;;10500090;28;20284;-79
2023/04/11 18:56:22;;;;;;;8.30;4.70;;;12.40;76.90;;;;;;10484845;28;20197;-80
2023/04/11 19:01:24;;;;;;;12.80;7.17;;;12.30;77.70;;;;;;10507723;28;20708;-81
2023/04/11 19:06:26;;;;;;;6.17;4.73;;;12.20;77.60;;;;;;10509664;28;20232;-81
2023/04/11 19:11:29;;;;;;;7.03;4.07;;;12.10;78.00;;;;;;10507366;28;20567;-79
2023/04/11 19:16:33;;;;;;;6.90;4.37;;;11.90;78.50;;;;;;10504783;28;20715;-79
2023/04/11 19:21:36;;;;;;;5.57;3.90;;;11.90;79.20;;;;;;10503410;28;20224;-79
2023/04/11 19:26:40;;;;;;;3.40;3.03;;;11.90;79.90;;;;;;10504848;28;20224;-80
2023/04/11 19:31:42;;;;;;;4.13;3.40;;;11.80;79.70;;;;;;10506128;28;20216;-80
2023/04/11 19:36:44;;;;;;;7.53;3.70;;;11.70;80.10;;;;;;10504709;28;20308;-80
2023/04/11 19:41:48;;;;;;;7.57;4.30;;;11.60;80.70;;;;;;10498417;28;20659;-79
2023/04/11 19:46:50;;;;;;;7.10;4.17;;;11.60;80.90;;;;;;10504392;28;20274;-80
2023/04/11 19:51:52;;;;;;;3.80;3.10;;;11.60;81.30;;;;;;10493485;28;20251;-80
2023/04/11 19:56:56;;;;;;;5.30;3.17;;;11.50;81.70;;;;;;10492849;28;20755;-80
2023/04/11 20:02:00;;;;;;;5.23;4.00;;;11.50;82.10;;;;;;10506922;28;20367;-80
2023/04/11 20:07:03;;;;;;;7.07;5.27;;;11.50;82.60;;;;;;10504065;28;20221;-80
2023/04/11 20:12:06;;;;;;;6.60;5.70;;;11.50;82.50;;;;;;10502833;28;20258;-81
2023/04/11 20:17:11;;;;;;;4.40;4.00;;;11.40;83.10;;;;;;10501508;28;20240;-80
2023/04/11 20:22:17;;;;;;;4.83;3.73;;;11.40;82.50;;;;;;10501824;28;20259;-80
2023/04/11 20:27:20;;;;;;;8.13;4.10;;;11.40;84.00;;;;;;10497955;28;20220;-80
2023/04/11 20:32:22;;;;;;;8.73;3.67;;;11.50;83.70;;;;;;10498310;28;20618;-79
2023/04/11 20:37:24;;;;;;;3.90;3.50;;;11.50;83.00;;;;;;10496937;28;20246;-80
2023/04/11 20:42:30;;;;;;;4.70;3.93;;;11.50;83.40;;;;;;10500809;28;20577;-79
2023/04/11 20:47:36;;;;;;;5.00;4.40;;;11.50;83.20;;;;;;10485092;28;20227;-81
2023/04/11 20:52:39;;;;;;;6.07;4.20;;;11.50;83.20;;;;;;10486515;28;20261;-80
2023/04/11 20:57:43;;;;;;;6.07;4.00;;;11.50;84.10;;;;;;10502503;28;20209;-78
2023/04/11 21:02:48;;;;;;;4.00;3.20;;;11.50;82.70;;;;;;10501089;28;20722;-78
2023/04/11 21:07:52;;;;;;;3.37;3.00;;;11.50;82.80;;;;;;10516920;22;20312;-80
2023/04/11 21:12:56;;;;;;;4.10;3.47;;;11.50;83.60;;;;;;10403468;28;20208;-81
2023/04/11 21:17:58;;;;;;;7.10;3.00;;;11.40;84.40;;;;;;10421572;28;20276;-81
2023/04/11 21:23:01;;;;;;;4.47;3.00;;;11.50;83.50;;;;;;10406222;28;20194;-80
2023/04/11 21:28:04;;;;;;;4.70;3.17;;;11.50;83.90;;;;;;10425646;28;20253;-83
2023/04/11 21:33:08;;;;;;;4.17;3.20;;;11.50;84.60;;;;;;10416486;28;20202;-80
2023/04/11 21:38:11;;;;;;;5.00;3.30;;;11.50;83.70;;;;;;10422889;28;20214;-81
2023/04/11 21:43:14;;;;;;;10.10;4.20;;;11.50;84.50;;;;;;10406292;28;20332;-81
2023/04/11 21:48:16;;;;;;;5.43;3.67;;;11.50;85.50;;;;;;10422821;28;20218;-81
2023/04/11 21:53:18;;;;;;;3.63;3.07;;;11.60;83.60;;;;;;10422966;28;20194;-81
2023/04/11 21:58:22;;;;;;;7.50;3.90;;;11.60;84.70;;;;;;10417441;28;20237;-80
2023/04/11 22:03:25;;;;;;;7.80;3.50;;;11.70;84.20;;;;;;10397894;28;20197;-80
2023/04/11 22:08:28;;;;;;;4.93;3.03;;;11.60;83.20;;;;;;10417455;28;20218;-80
2023/04/11 22:13:31;;;;;;;5.37;3.37;;;11.60;81.20;;;;;;10399067;28;20289;-80
2023/04/11 22:18:37;;;;;;;6.97;3.50;;;11.70;79.60;;;;;;10412913;28;20638;-80
2023/04/11 22:23:41;;;;;;;5.60;2.77;;;11.80;79.80;;;;;;10400392;28;20230;-80
2023/04/11 22:28:45;;;;;;;3.03;2.50;;;11.80;80.30;;;;;;10400838;28;20277;-80
2023/04/11 22:33:47;;;;;;;3.50;2.80;;;11.80;83.00;;;;;;10418771;28;20202;-80
2023/04/11 22:38:49;;;;;;;5.27;2.83;;;11.90;82.80;;;;;;10429813;28;20214;-81
2023/04/11 22:43:53;;;;;;;6.03;3.63;;;11.90;84.90;;;;;;10415479;28;20201;-81
2023/04/11 22:48:56;;;;;;;3.37;3.00;;;12.00;83.10;;;;;;10413770;28;20210;-83
2023/04/11 22:53:59;;;;;;;3.40;3.07;;;12.00;82.70;;;;;;10432535;28;20209;-81
2023/04/11 22:59:03;;;;;;;3.40;2.97;;;12.00;81.90;;;;;;10413259;28;20219;-81
2023/04/11 23:04:06;;;;;;;5.07;3.40;;;12.00;82.30;;;;;;10430131;28;20190;-82
2023/04/11 23:09:08;;;;;;;4.20;3.07;;;11.90;81.90;;;;;;10428173;28;20225;-80
2023/04/11 23:14:13;;;;;;;3.80;2.73;;;11.90;82.10;;;;;;10428886;28;20205;-83
2023/04/11 23:19:16;;;;;;;5.57;2.73;;;11.90;81.30;;;;;;10425125;28;20229;-80
2023/04/11 23:24:18;;;;;;;3.60;2.90;;;11.80;81.00;;;;;;10407070;28;20266;-82
2023/04/11 23:29:21;;;;;;;3.67;2.70;;;11.80;80.30;;;;;;10418893;28;20215;-82
2023/04/11 23:34:23;;;;;;;4.77;3.00;;;11.80;78.60;;;;;;10419791;28;20234;-82
2023/04/11 23:39:26;;;;;;;6.03;3.60;;;11.90;79.10;;;;;;10420797;28;20297;-82
2023/04/11 23:44:29;;;;;;;7.30;3.23;;;11.90;77.10;;;;;;10421024;28;20216;-82
2023/04/11 23:49:31;;;;;;;3.57;2.97;;;11.90;77.10;;;;;;10407742;28;20214;-82
2023/04/11 23:54:34;;;;;;;3.77;3.20;;;12.00;76.40;;;;;;10431000;28;20291;-80
2023/04/11 23:59:38;;;;;;;8.83;3.57;;;11.90;76.90;;;;;;10412163;28;20223;-82
